Time;durP1;ratioP1;P1;durP2;ratioP2;P2;SDS_P1;SDS_P2;PMS_P1;PMS_P2;Temp;Humidity;BMP_temperature;BMP_pressure;BME280_temperature;BME280_humidity;BME280_pressure;Samples;Min_cycle;Max_cycle;Signal;HPM_P1;HPM_P2
2023/06/29 00:00:31;;;;;;;1.80;1.50;;;17.10;1.00;;;;;;5073992;28;20173;-81
2023/06/29 00:02:57;;;;;;;27.30;6.00;;;17.20;99.90;;;;;;5074708;28;20174;-81
2023/06/29 00:05:22;;;;;;;2.57;2.20;;;17.40;41.50;;;;;;5055300;28;20283;-81
2023/06/29 00:07:48;;;;;;;3.13;2.43;;;17.30;1.00;;;;;;5074410;28;20272;-82
2023/06/29 00:10:14;;;;;;;16.00;3.40;;;17.30;1.00;;;;;;5056348;28;20172;-82
2023/06/29 00:12:40;;;;;;;4.40;2.33;;;17.20;1.00;;;;;;5056603;28;20173;-84
2023/06/29 00:15:06;;;;;;;4.40;2.47;;;17.10;43.90;;;;;;5056836;28;20180;-84
2023/06/29 00:17:33;;;;;;;2.63;2.00;;;17.00;19.90;;;;;;5074442;28;20197;-83
2023/06/29 00:20:00;;;;;;;2.53;2.33;;;16.90;1.00;;;;;;5056776;28;20229;-82
2023/06/29 00:22:26;;;;;;;3.17;2.97;;;16.70;97.40;;;;;;5056505;28;20172;-82
2023/06/29 00:24:59;;;;;;;3.47;2.20;;;16.60;99.90;;;;;;5057053;28;20331;-82
2023/06/29 00:27:25;;;;;;;3.93;2.17;;;16.50;99.90;;;;;;5073493;28;20278;-82
2023/06/29 00:29:50;;;;;;;2.57;2.30;;;16.50;1.00;;;;;;5056428;28;20211;-84
2023/06/29 00:32:16;;;;;;;345.90;25.27;;;16.40;83.20;;;;;;5056328;28;20260;-82
2023/06/29 00:34:42;;;;;;;4.17;2.30;;;16.30;99.90;;;;;;5073432;28;20274;-82
2023/06/29 00:37:07;;;;;;;3.90;2.50;;;16.20;99.90;;;;;;5074037;28;20187;-82
2023/06/29 00:39:33;;;;;;;2.27;1.70;;;16.30;99.90;;;;;;5074397;28;20262;-83
2023/06/29 00:41:59;;;;;;;3.30;2.43;;;16.20;99.90;;;;;;5055655;28;20173;-83
2023/06/29 00:44:24;;;;;;;9.60;8.83;;;16.10;1.00;;;;;;5073939;28;20173;-82
2023/06/29 00:46:52;;;;;;;2.87;1.77;;;16.00;1.00;;;;;;5056474;28;20246;-82
2023/06/29 00:49:19;;;;;;;78.10;6.27;;;16.00;99.90;;;;;;5055886;28;20710;-82
2023/06/29 00:51:50;;;;;;;3.20;2.80;;;15.90;1.00;;;;;;5073368;28;20218;-82
2023/06/29 00:54:20;;;;;;;3.23;2.40;;;15.90;1.00;;;;;;5056119;28;20550;-82
2023/06/29 00:56:46;;;;;;;1.97;1.77;;;16.00;1.00;;;;;;5056416;28;20726;-82
2023/06/29 00:59:12;;;;;;;2.83;2.20;;;16.00;1.00;;;;;;5073943;28;20288;-79
2023/06/29 01:01:39;;;;;;;3.63;1.97;;;16.00;1.00;;;;;;5055420;28;20216;-83
2023/06/29 01:04:06;;;;;;;2.00;1.70;;;16.00;1.00;;;;;;5074030;28;20197;-82
2023/06/29 01:06:41;;;;;;;2.53;2.33;;;16.00;1.00;;;;;;5074006;28;20287;-83
2023/06/29 01:09:08;;;;;;;20.40;3.43;;;16.10;1.00;;;;;;5073575;28;20355;-82
2023/06/29 01:11:35;;;;;;;95.83;23.53;;;16.00;99.90;;;;;;5073901;28;20177;-81
2023/06/29 01:14:03;;;;;;;3.37;2.27;;;15.90;99.90;;;;;;5055721;28;20177;-83
2023/06/29 01:16:33;;;;;;;3.77;2.37;;;15.80;1.00;;;;;;5055123;28;20657;-82
2023/06/29 01:19:01;;;;;;;95.00;7.10;;;15.80;1.00;;;;;;5073725;28;20284;-83
2023/06/29 01:21:29;;;;;;;2.93;2.40;;;15.80;99.90;;;;;;5073497;28;20234;-82
2023/06/29 01:23:58;;;;;;;2.73;2.30;;;15.70;99.90;;;;;;5073697;28;20181;-82
2023/06/29 01:26:23;;;;;;;2.80;2.40;;;15.60;99.90;;;;;;5073675;28;20663;-81
2023/06/29 01:28:50;;;;;;;4.37;2.33;;;15.60;99.90;;;;;;5055938;28;20679;-82
2023/06/29 01:31:16;;;;;;;3.03;2.40;;;15.50;1.00;;;;;;5073392;28;20314;-82
2023/06/29 01:33:42;;;;;;;1.90;1.77;;;15.50;99.90;;;;;;5073750;28;20205;-82
2023/06/29 01:36:20;;;;;;;2.30;1.80;;;15.60;99.90;;;;;;5073786;28;20263;-82
2023/06/29 01:39:11;;;;;;;2.33;1.80;;;15.40;1.00;;;;;;5073702;28;20196;-82
2023/06/29 01:41:40;;;;;;;2.60;2.13;;;15.30;1.00;;;;;;5071817;28;20239;-82
2023/06/29 01:44:11;;;;;;;3.27;2.00;;;15.20;1.00;;;;;;5055640;28;20658;-83
2023/06/29 01:46:39;;;;;;;3.20;2.23;;;15.00;99.90;;;;;;5073412;28;20647;-82
2023/06/29 01:49:05;;;;;;;4.93;2.50;;;15.00;1.00;;;;;;5055312;28;20542;-82
2023/06/29 01:51:31;;;;;;;3.13;2.70;;;15.10;99.90;;;;;;5072956;28;20522;-82
2023/06/29 01:53:57;;;;;;;4.87;2.50;;;15.10;99.90;;;;;;5055496;28;20184;-82
2023/06/29 01:56:22;;;;;;;3.37;2.57;;;15.00;1.00;;;;;;5055405;28;20180;-82
2023/06/29 01:58:48;;;;;;;143.07;11.43;;;14.90;1.00;;;;;;5073188;28;20200;-82
2023/06/29 02:01:14;;;;;;;2.57;2.37;;;14.90;31.00;;;;;;5072685;28;20183;-82
2023/06/29 02:03:39;;;;;;;2.67;2.27;;;14.90;1.00;;;;;;5073122;28;20185;-82
2023/06/29 02:06:05;;;;;;;3.70;2.50;;;14.80;1.00;;;;;;5073262;28;20201;-82
2023/06/29 02:08:31;;;;;;;3.47;2.60;;;14.90;1.00;;;;;;5073320;28;20209;-81
2023/06/29 02:10:57;;;;;;;3.30;2.50;;;14.90;99.90;;;;;;5071820;28;20197;-82
2023/06/29 02:13:23;;;;;;;3.60;2.70;;;14.80;99.90;;;;;;5055045;28;20204;-82
2023/06/29 02:15:48;;;;;;;2.93;2.17;;;14.70;1.00;;;;;;5055126;28;20226;-82
2023/06/29 02:18:14;;;;;;;3.43;2.60;;;14.80;80.40;;;;;;5073282;28;20592;-82
2023/06/29 02:20:40;;;;;;;19.53;8.77;;;14.80;99.90;;;;;;5054962;28;20169;-82
2023/06/29 02:23:05;;;;;;;85.30;12.27;;;14.80;1.00;;;;;;5073316;28;20635;-83
2023/06/29 02:25:31;;;;;;;3.40;2.30;;;14.80;1.00;;;;;;5071821;28;20208;-82
2023/06/29 02:27:56;;;;;;;3.60;3.00;;;14.80;1.00;;;;;;5056020;28;20187;-82
2023/06/29 02:30:22;;;;;;;2.47;2.27;;;14.90;3.30;;;;;;5074934;28;20169;-82
2023/06/29 02:32:47;;;;;;;2.80;2.60;;;14.80;1.00;;;;;;5076694;28;20200;-83
2023/06/29 02:35:13;;;;;;;3.27;2.37;;;14.90;99.90;;;;;;5058783;28;20185;-82
2023/06/29 02:37:38;;;;;;;2.83;2.30;;;14.80;99.90;;;;;;5027745;28;20209;-82
2023/06/29 02:40:05;;;;;;;3.63;2.70;;;14.70;1.00;;;;;;5018792;28;20204;-82
2023/06/29 02:42:30;;;;;;;3.00;2.77;;;14.70;1.00;;;;;;5036787;28;20232;-82
2023/06/29 02:44:56;;;;;;;4.03;2.70;;;14.60;99.90;;;;;;5018606;28;20320;-83
2023/06/29 02:47:21;;;;;;;3.10;2.80;;;14.40;99.90;;;;;;5036630;28;20592;-82
2023/06/29 02:49:47;;;;;;;3.13;2.37;;;14.30;1.00;;;;;;5035767;28;20170;-82
2023/06/29 02:52:13;;;;;;;8.53;5.27;;;14.20;99.90;;;;;;5036642;28;20173;-82
2023/06/29 02:54:38;;;;;;;71.43;6.00;;;14.20;1.00;;;;;;5036528;28;20257;-83
2023/06/29 02:57:04;;;;;;;72.80;8.50;;;14.20;99.90;;;;;;5018598;28;20249;-82
2023/06/29 02:59:29;;;;;;;4.47;2.77;;;14.10;1.00;;;;;;5024363;28;20219;-81
2023/06/29 03:01:55;;;;;;;49.53;8.97;;;14.00;39.60;;;;;;5058362;28;20169;-82
2023/06/29 03:04:21;;;;;;;3.27;2.80;;;13.80;13.30;;;;;;5075981;28;20312;-83
2023/06/29 03:06:46;;;;;;;2.97;2.67;;;13.90;1.00;;;;;;5057761;28;20204;-81
2023/06/29 03:09:12;;;;;;;3.27;2.60;;;13.90;99.90;;;;;;5058253;28;20205;-81
2023/06/29 03:11:37;;;;;;;3.37;2.80;;;13.90;1.00;;;;;;5057717;28;20196;-82
2023/06/29 03:14:03;;;;;;;4.17;2.53;;;13.80;99.90;;;;;;5057946;28;20173;-82
2023/06/29 03:16:28;;;;;;;3.73;2.73;;;13.80;99.90;;;;;;5058653;28;20173;-81
2023/06/29 03:18:54;;;;;;;3.00;2.60;;;13.70;99.90;;;;;;5076095;28;20193;-82
2023/06/29 03:21:19;;;;;;;4.40;2.73;;;13.70;99.90;;;;;;5057379;28;20204;-83
2023/06/29 03:23:45;;;;;;;4.70;4.27;;;13.60;1.00;;;;;;5076110;28;20173;-81
2023/06/29 03:26:11;;;;;;;3.03;2.73;;;13.80;1.00;;;;;;5057940;28;20197;-81
2023/06/29 03:28:37;;;;;;;3.63;2.80;;;13.90;99.90;;;;;;5057750;28;20193;-82
2023/06/29 03:31:02;;;;;;;70.23;23.33;;;13.90;1.00;;;;;;5075366;28;20169;-81
2023/06/29 03:33:28;;;;;;;51.63;19.83;;;13.80;1.00;;;;;;5075730;28;20223;-82
2023/06/29 03:35:54;;;;;;;2.93;2.70;;;13.90;1.00;;;;;;5074749;28;20173;-82
2023/06/29 03:38:19;;;;;;;3.43;2.90;;;13.90;99.90;;;;;;5057826;28;20561;-81
2023/06/29 03:40:45;;;;;;;110.33;25.97;;;14.00;1.00;;;;;;5075065;28;20548;-82
2023/06/29 03:43:10;;;;;;;2.70;2.50;;;14.00;99.90;;;;;;5075705;28;20252;-82
2023/06/29 03:45:36;;;;;;;2.80;2.60;;;14.00;99.90;;;;;;5075701;28;20223;-82
2023/06/29 03:48:01;;;;;;;2.87;2.60;;;13.90;99.90;;;;;;5057656;28;20189;-82
2023/06/29 03:50:27;;;;;;;4.27;3.87;;;13.80;1.00;;;;;;5057557;28;20173;-81
2023/06/29 03:52:52;;;;;;;3.70;2.97;;;13.90;1.00;;;;;;5074396;28;20238;-82
2023/06/29 03:55:18;;;;;;;3.03;2.63;;;13.90;99.90;;;;;;5057286;28;20176;-81
2023/06/29 03:57:44;;;;;;;4.00;3.23;;;13.90;1.00;;;;;;5075244;28;20200;-82
2023/06/29 04:00:10;;;;;;;3.47;3.17;;;13.90;99.90;;;;;;5056902;28;20643;-81
2023/06/29 04:02:35;;;;;;;3.23;2.67;;;14.10;1.00;;;;;;5057041;28;20203;-82
2023/06/29 04:05:01;;;;;;;3.07;2.77;;;14.10;99.90;;;;;;5057145;28;20172;-82
2023/06/29 04:07:27;;;;;;;3.17;2.80;;;14.00;1.00;;;;;;5074871;28;20625;-81
2023/06/29 04:09:52;;;;;;;4.00;2.87;;;13.90;1.00;;;;;;5074718;28;20176;-81
2023/06/29 04:12:18;;;;;;;3.73;3.17;;;13.90;1.00;;;;;;5057331;28;20180;-82
2023/06/29 04:14:43;;;;;;;5.83;2.83;;;13.90;1.00;;;;;;5074805;28;20177;-81
2023/06/29 04:17:09;;;;;;;3.13;2.73;;;14.00;1.00;;;;;;5074613;28;20176;-81
2023/06/29 04:19:35;;;;;;;18.83;8.43;;;14.00;1.00;;;;;;5074825;28;20173;-81
2023/06/29 04:22:00;;;;;;;3.43;3.13;;;14.20;1.00;;;;;;5074607;28;20191;-81
2023/06/29 04:24:26;;;;;;;733.13;358.30;;;14.10;13.30;;;;;;5074833;28;20171;-82
2023/06/29 04:26:51;;;;;;;3.77;3.37;;;14.20;1.00;;;;;;5074489;28;20193;-80
2023/06/29 04:29:17;;;;;;;3.57;3.23;;;14.20;99.90;;;;;;5074001;28;20272;-80
2023/06/29 04:31:42;;;;;;;4.50;3.20;;;14.30;1.00;;;;;;5073649;28;20185;-81
2023/06/29 04:34:08;;;;;;;4.40;3.40;;;14.30;1.00;;;;;;5074311;28;20177;-80
2023/06/29 04:36:34;;;;;;;140.20;10.33;;;14.40;1.00;;;;;;5056097;28;20204;-80
2023/06/29 04:39:00;;;;;;;4.00;3.60;;;14.40;1.00;;;;;;5074225;28;20201;-80
2023/06/29 04:41:32;;;;;;;33.47;4.30;;;14.40;1.00;;;;;;5073935;28;20605;-80
2023/06/29 04:43:59;;;;;;;4.77;3.53;;;14.40;1.00;;;;;;5056504;28;20169;-80
2023/06/29 04:46:24;;;;;;;4.43;3.40;;;14.40;1.00;;;;;;5057082;28;20204;-77
2023/06/29 04:48:50;;;;;;;5.70;3.63;;;14.40;1.00;;;;;;5074544;28;20192;-80
2023/06/29 04:51:18;;;;;;;4.27;3.80;;;14.40;1.00;;;;;;5051610;28;20264;-80
2023/06/29 04:53:44;;;;;;;8.53;4.37;;;14.50;1.00;;;;;;5036805;28;20208;-80
2023/06/29 04:56:09;;;;;;;3.80;3.50;;;14.50;1.00;;;;;;5054952;28;20178;-80
2023/06/29 04:58:35;;;;;;;4.53;3.47;;;14.70;1.00;;;;;;5053745;28;20202;-80
2023/06/29 05:01:01;;;;;;;4.97;3.73;;;14.70;1.00;;;;;;5053823;28;20254;-80
2023/06/29 05:03:26;;;;;;;4.30;4.00;;;14.80;1.00;;;;;;5054177;28;20178;-81
2023/06/29 05:05:52;;;;;;;5.50;4.57;;;14.80;1.00;;;;;;5036771;28;20197;-81
2023/06/29 05:08:17;;;;;;;263.23;234.27;;;14.80;99.90;;;;;;5038291;28;20206;-85
2023/06/29 05:10:43;;;;;;;4.40;4.00;;;14.80;1.00;;;;;;5068643;28;20176;-81
2023/06/29 05:13:09;;;;;;;4.67;3.00;;;14.80;35.40;;;;;;5058564;28;20528;-79
2023/06/29 05:15:35;;;;;;;4.27;3.87;;;14.90;99.90;;;;;;5058296;28;20185;-81
2023/06/29 05:18:00;;;;;;;66.90;7.20;;;15.10;99.90;;;;;;5076829;28;20196;-81
2023/06/29 05:20:26;;;;;;;12.00;4.53;;;15.30;1.00;;;;;;5074365;28;20183;-80
2023/06/29 05:22:52;;;;;;;4.37;3.97;;;15.50;1.00;;;;;;5058348;28;20204;-81
2023/06/29 05:25:17;;;;;;;117.13;88.40;;;15.50;99.90;;;;;;5076056;28;20196;-81
2023/06/29 05:27:43;;;;;;;1999.90;999.90;;;15.50;1.00;;;;;;5054952;28;20202;-80
2023/06/29 05:30:09;;;;;;;1999.90;999.90;;;15.60;99.90;;;;;;5025801;28;20177;-81
2023/06/29 05:32:36;;;;;;;67.87;21.33;;;15.50;99.90;;;;;;5037804;28;20174;-80
2023/06/29 05:35:02;;;;;;;5.07;3.57;;;15.60;99.90;;;;;;5055280;28;20232;-79
2023/06/29 05:37:29;;;;;;;4.23;3.83;;;15.60;21.20;;;;;;5055569;28;20275;-81
2023/06/29 05:39:56;;;;;;;4.23;3.83;;;15.60;99.90;;;;;;5036914;28;20173;-79
2023/06/29 05:42:22;;;;;;;5.37;4.73;;;15.70;1.00;;;;;;5045664;28;20173;-80
2023/06/29 05:44:48;;;;;;;5.03;4.53;;;15.80;1.00;;;;;;5047241;28;20276;-80
2023/06/29 05:47:14;;;;;;;5.07;3.60;;;15.90;1.00;;;;;;5053383;28;20296;-80
2023/06/29 05:49:39;;;;;;;4.80;4.40;;;15.90;99.90;;;;;;5055175;28;20168;-81
2023/06/29 05:52:05;;;;;;;6.37;3.40;;;16.00;1.00;;;;;;5056631;28;20199;-80
2023/06/29 05:54:30;;;;;;;4.47;3.60;;;16.30;1.00;;;;;;5045630;28;20184;-80
2023/06/29 05:56:56;;;;;;;4.80;3.70;;;16.60;99.90;;;;;;5036747;28;20176;-80
2023/06/29 05:59:22;;;;;;;4.00;3.20;;;16.60;1.00;;;;;;5036838;28;20675;-80
2023/06/29 06:01:47;;;;;;;4.63;3.70;;;16.70;99.90;;;;;;5054020;28;20862;-80
2023/06/29 06:04:14;;;;;;;4.47;3.67;;;16.90;1.00;;;;;;5040145;28;20181;-80
2023/06/29 06:06:39;;;;;;;4.13;3.73;;;16.90;1.00;;;;;;5061111;28;20201;-82
2023/06/29 06:09:06;;;;;;;4.40;4.00;;;16.90;1.00;;;;;;5087346;22;20268;-80
2023/06/29 06:11:31;;;;;;;4.23;3.83;;;16.80;95.50;;;;;;5026268;28;20249;-80
2023/06/29 06:13:57;;;;;;;76.30;20.83;;;16.90;1.00;;;;;;5010581;28;20262;-82
2023/06/29 06:16:23;;;;;;;4.47;4.03;;;17.00;99.90;;;;;;5030419;28;20241;-83
2023/06/29 06:18:48;;;;;;;4.10;3.63;;;17.00;1.00;;;;;;5020505;28;20229;-86
2023/06/29 06:21:14;;;;;;;82.53;34.83;;;17.10;1.00;;;;;;5018757;28;20222;-84
2023/06/29 06:23:40;;;;;;;4.43;4.03;;;17.20;62.70;;;;;;5018889;28;20186;-84
2023/06/29 06:26:06;;;;;;;408.33;45.53;;;17.30;99.90;;;;;;5006582;28;20209;-84
2023/06/29 06:28:31;;;;;;;4.77;3.63;;;17.40;1.00;;;;;;5006913;28;20230;-84
2023/06/29 06:30:57;;;;;;;6.87;6.20;;;17.50;99.90;;;;;;4999921;28;20179;-85
2023/06/29 06:33:22;;;;;;;66.90;7.70;;;17.60;99.90;;;;;;5018614;28;20195;-84
2023/06/29 06:35:49;;;;;;;5.30;3.90;;;17.70;1.00;;;;;;5000654;28;20183;-84
2023/06/29 06:38:14;;;;;;;37.83;34.80;;;17.80;99.90;;;;;;5016980;28;20705;-84
2023/06/29 06:40:40;;;;;;;4.50;3.70;;;17.90;1.00;;;;;;5001738;28;20175;-84
2023/06/29 06:43:05;;;;;;;6.00;4.00;;;18.00;1.00;;;;;;5000858;28;20179;-83
2023/06/29 06:45:31;;;;;;;4.60;3.67;;;18.10;1.00;;;;;;4998269;28;20199;-84
2023/06/29 06:47:56;;;;;;;4.30;3.70;;;18.20;1.00;;;;;;4998157;28;20203;-84
2023/06/29 06:50:22;;;;;;;4.17;3.77;;;18.30;99.90;;;;;;5015349;28;20650;-84
2023/06/29 06:52:48;;;;;;;5.97;4.10;;;18.40;1.00;;;;;;5015429;28;20174;-85
2023/06/29 06:55:13;;;;;;;3.83;3.43;;;18.60;1.00;;;;;;4998347;28;20178;-83
2023/06/29 06:57:39;;;;;;;4.47;3.27;;;18.70;1.00;;;;;;4998253;28;20320;-84
2023/06/29 07:00:06;;;;;;;3.90;3.47;;;18.80;1.00;;;;;;5015458;28;20183;-84
2023/06/29 07:02:34;;;;;;;4.67;3.37;;;19.00;1.00;;;;;;4998159;28;20175;-84
2023/06/29 07:05:00;;;;;;;4.70;3.37;;;19.10;1.00;;;;;;4998473;28;20175;-82
2023/06/29 07:07:26;;;;;;;4.03;2.77;;;19.20;99.90;;;;;;4997942;28;20211;-84
2023/06/29 07:09:51;;;;;;;4.93;3.37;;;19.30;99.90;;;;;;5015220;28;20218;-83
2023/06/29 07:12:17;;;;;;;4.37;3.30;;;19.60;4.80;;;;;;4998439;28;20259;-84
2023/06/29 07:14:43;;;;;;;4.07;3.17;;;19.70;1.00;;;;;;5015325;28;20197;-84
2023/06/29 07:17:08;;;;;;;3.40;2.90;;;19.90;1.00;;;;;;5015938;28;20178;-84
2023/06/29 07:19:34;;;;;;;3.90;3.00;;;20.10;1.00;;;;;;5015177;28;20199;-84
2023/06/29 07:21:59;;;;;;;3.78;2.90;;;20.20;99.90;;;;;;4997492;28;20237;-84
2023/06/29 07:24:25;;;;;;;4.15;2.88;;;20.30;99.90;;;;;;4997946;28;20175;-83
2023/06/29 07:26:50;;;;;;;3.10;2.80;;;20.40;1.00;;;;;;5015840;28;20206;-84
2023/06/29 07:29:16;;;;;;;4.35;3.10;;;20.50;99.90;;;;;;5015787;28;20194;-84
2023/06/29 07:31:42;;;;;;;3.85;2.70;;;20.60;99.90;;;;;;4997416;28;20171;-84
2023/06/29 07:34:07;;;;;;;2.90;2.58;;;20.80;1.00;;;;;;5015672;28;20179;-83
2023/06/29 07:36:34;;;;;;;401.88;60.10;;;20.90;99.90;;;;;;4996441;28;20171;-84
2023/06/29 07:39:00;;;;;;;16.05;7.35;;;21.00;99.90;;;;;;4997620;28;20209;-84
2023/06/29 07:41:26;;;;;;;4.05;2.60;;;21.10;99.90;;;;;;5014748;28;20172;-83
2023/06/29 07:43:55;;;;;;;4.05;2.45;;;21.20;99.90;;;;;;4997953;28;20175;-84
2023/06/29 07:46:21;;;;;;;4.22;2.50;;;21.40;99.90;;;;;;4997608;28;20233;-85
2023/06/29 07:48:48;;;;;;;2.65;1.80;;;21.60;99.90;;;;;;5015190;28;20206;-84
2023/06/29 07:51:14;;;;;;;3.47;1.95;;;21.60;99.90;;;;;;4996851;28;20182;-84
2023/06/29 07:53:40;;;;;;;121.18;13.63;;;21.80;55.70;;;;;;4997361;28;20179;-84
2023/06/29 07:56:05;;;;;;;8.27;7.72;;;21.90;94.00;;;;;;4997441;28;20182;-84
2023/06/29 07:58:31;;;;;;;3.75;2.10;;;21.90;1.00;;;;;;5015209;28;20191;-84
2023/06/29 08:00:57;;;;;;;2.83;2.00;;;22.00;1.00;;;;;;4996962;28;20190;-85
2023/06/29 08:03:23;;;;;;;2.67;1.83;;;22.00;1.00;;;;;;4997477;28;20179;-83
2023/06/29 08:05:50;;;;;;;3.88;1.90;;;22.10;1.00;;;;;;4997434;28;20214;-84
2023/06/29 08:08:16;;;;;;;2.72;1.98;;;22.20;1.00;;;;;;5015109;28;20210;-83
2023/06/29 08:10:42;;;;;;;2.35;2.10;;;22.30;1.00;;;;;;4996961;28;20179;-84
2023/06/29 08:13:07;;;;;;;3.28;1.77;;;22.50;1.00;;;;;;4997494;28;20171;-84
2023/06/29 08:15:33;;;;;;;3.35;1.88;;;22.60;1.00;;;;;;4997584;28;20183;-84
2023/06/29 08:17:59;;;;;;;1.92;1.67;;;22.60;1.00;;;;;;4997328;28;20191;-84
2023/06/29 08:20:24;;;;;;;2.97;1.90;;;22.80;1.00;;;;;;5014846;28;20186;-84
2023/06/29 08:22:50;;;;;;;5.95;2.08;;;22.90;1.00;;;;;;4997364;28;20190;-84
2023/06/29 08:25:15;;;;;;;3.00;1.60;;;23.00;1.00;;;;;;4996765;28;20175;-83
2023/06/29 08:27:42;;;;;;;2.10;1.83;;;23.10;1.00;;;;;;5014907;28;20175;-84
2023/06/29 08:30:09;;;;;;;3.25;2.00;;;23.10;1.00;;;;;;4997099;28;20650;-85
2023/06/29 08:32:35;;;;;;;2.15;1.63;;;23.20;1.00;;;;;;4997156;28;20658;-84
2023/06/29 08:35:00;;;;;;;2.13;1.80;;;23.20;1.00;;;;;;5014673;28;20181;-84
2023/06/29 08:37:28;;;;;;;3.60;1.90;;;23.30;1.00;;;;;;4995751;28;20614;-84
2023/06/29 08:39:56;;;;;;;2.65;1.90;;;23.40;1.00;;;;;;4996900;28;20220;-84
2023/06/29 08:42:23;;;;;;;2.25;1.70;;;23.60;1.00;;;;;;5014599;28;20638;-84
2023/06/29 08:44:50;;;;;;;3.17;1.73;;;23.80;1.00;;;;;;4996438;28;20186;-83
2023/06/29 08:47:16;;;;;;;3.25;2.10;;;23.80;1.00;;;;;;5015580;28;20198;-84
2023/06/29 08:49:42;;;;;;;4.25;1.88;;;23.80;1.00;;;;;;4996270;28;20286;-84
2023/06/29 08:52:14;;;;;;;3.00;1.95;;;23.90;1.00;;;;;;5015080;28;20242;-84
2023/06/29 08:54:40;;;;;;;3.90;2.10;;;24.10;1.00;;;;;;4997298;28;20174;-84
2023/06/29 08:57:06;;;;;;;2.67;2.00;;;24.20;1.00;;;;;;4997107;28;20175;-84
2023/06/29 08:59:33;;;;;;;3.60;2.08;;;24.30;1.00;;;;;;4997553;28;20206;-84
2023/06/29 09:01:59;;;;;;;2.80;1.90;;;24.40;1.00;;;;;;4996875;28;20186;-85
2023/06/29 09:04:25;;;;;;;2.63;1.80;;;24.70;1.00;;;;;;5015048;28;20182;-84
2023/06/29 09:06:53;;;;;;;2.05;1.70;;;24.90;1.00;;;;;;5014654;28;20292;-84
2023/06/29 09:09:20;;;;;;;2.47;1.80;;;24.80;99.90;;;;;;5014886;28;20700;-84
2023/06/29 09:11:46;;;;;;;2.72;2.08;;;24.50;1.00;;;;;;5014349;28;20298;-85
2023/06/29 09:14:11;;;;;;;2.22;2.00;;;24.60;1.00;;;;;;5015421;28;20238;-84
2023/06/29 09:16:49;;;;;;;3.58;1.83;;;24.60;1.00;;;;;;5016152;28;20171;-85
2023/06/29 09:19:14;;;;;;;2.85;1.90;;;24.50;1.00;;;;;;4997453;28;20294;-84
2023/06/29 09:21:47;;;;;;;2.10;1.60;;;24.70;1.00;;;;;;5015938;28;20214;-84
2023/06/29 09:24:14;;;;;;;2.38;1.70;;;24.50;1.00;;;;;;4997969;28;20225;-85
2023/06/29 09:26:40;;;;;;;2.47;2.00;;;24.60;1.00;;;;;;5015454;28;20200;-84
2023/06/29 09:29:06;;;;;;;2.20;1.80;;;24.90;1.00;;;;;;4998564;28;20190;-85
2023/06/29 09:31:35;;;;;;;2.05;1.80;;;24.90;99.90;;;;;;5014770;28;20175;-84
2023/06/29 09:34:21;;;;;;;2.13;1.90;;;24.90;1.00;;;;;;5014639;28;20175;-84
2023/06/29 09:36:47;;;;;;;2.70;1.70;;;25.00;99.90;;;;;;4995898;28;20269;-84
2023/06/29 09:39:13;;;;;;;2.67;1.70;;;25.10;99.90;;;;;;4997180;28;20277;-85
2023/06/29 09:41:56;;;;;;;2.80;1.80;;;25.20;99.90;;;;;;5014107;28;20175;-85
2023/06/29 09:44:24;;;;;;;3.65;1.90;;;25.40;99.90;;;;;;5014912;28;20187;-84
2023/06/29 09:46:51;;;;;;;2.88;1.80;;;25.30;99.90;;;;;;5015403;28;20210;-84
2023/06/29 09:49:20;;;;;;;2.63;1.85;;;25.40;99.90;;;;;;4998066;28;20195;-85
2023/06/29 09:51:48;;;;;;;4.00;1.75;;;25.70;99.90;;;;;;4997124;28;20175;-84
2023/06/29 09:54:18;;;;;;;133.48;8.30;;;26.20;99.90;;;;;;5015715;28;20243;-85
2023/06/29 09:56:45;;;;;;;1.85;1.60;;;26.30;99.90;;;;;;4998274;28;20179;-84
2023/06/29 09:59:11;;;;;;;1.88;1.77;;;26.30;99.90;;;;;;5018407;28;20210;-84
2023/06/29 10:01:37;;;;;;;4.45;1.80;;;26.20;99.90;;;;;;5001761;28;20174;-84
2023/06/29 10:04:04;;;;;;;27.80;4.70;;;26.10;99.90;;;;;;5013574;28;20171;-84
2023/06/29 10:06:52;;;;;;;3.50;2.05;;;26.10;99.90;;;;;;4995579;28;20213;-84
2023/06/29 10:09:21;;;;;;;3.65;2.03;;;26.00;99.90;;;;;;5013866;28;20234;-84
2023/06/29 10:11:51;;;;;;;1.83;1.70;;;25.70;99.90;;;;;;5013003;28;20677;-85
2023/06/29 10:14:19;;;;;;;3.47;1.85;;;25.50;99.90;;;;;;4995818;28;20166;-84
2023/06/29 10:16:52;;;;;;;2.67;1.95;;;25.30;99.90;;;;;;4996176;28;20199;-86
2023/06/29 10:19:22;;;;;;;2.55;1.88;;;25.40;99.90;;;;;;5012541;28;20187;-84
2023/06/29 10:21:56;;;;;;;2.88;2.00;;;25.60;99.90;;;;;;4994891;28;20179;-84
2023/06/29 10:24:36;;;;;;;2.90;1.88;;;26.10;99.90;;;;;;4995387;28;20827;-84
2023/06/29 10:27:03;;;;;;;2.72;1.92;;;26.30;99.90;;;;;;5013682;28;20199;-84
2023/06/29 10:29:29;;;;;;;2.42;1.90;;;26.50;99.90;;;;;;4995856;28;20213;-83
2023/06/29 10:31:58;;;;;;;2.67;1.80;;;26.50;99.90;;;;;;4995458;28;20171;-84
2023/06/29 10:34:26;;;;;;;2.60;1.88;;;26.60;99.90;;;;;;5013728;28;20175;-84
2023/06/29 10:36:52;;;;;;;1.80;1.65;;;26.70;99.90;;;;;;5012178;28;20175;-84
2023/06/29 10:39:41;;;;;;;2.35;1.90;;;26.80;99.90;;;;;;4995670;28;20199;-85
2023/06/29 10:42:12;;;;;;;2.08;1.70;;;27.10;99.90;;;;;;4995643;28;20179;-84
2023/06/29 10:44:38;;;;;;;2.22;1.80;;;27.60;99.90;;;;;;5013682;28;20186;-85
2023/06/29 10:47:04;;;;;;;1.90;1.70;;;27.60;99.90;;;;;;4996012;28;20245;-84
2023/06/29 10:49:30;;;;;;;2.00;1.63;;;27.70;99.90;;;;;;5015820;28;20236;-85
2023/06/29 10:52:03;;;;;;;2.50;2.03;;;27.30;99.90;;;;;;5016637;28;20182;-85
2023/06/29 10:54:28;;;;;;;3.65;1.90;;;27.10;99.90;;;;;;5017256;28;20254;-84
2023/06/29 10:57:02;;;;;;;3.25;1.85;;;27.20;99.90;;;;;;4999497;28;20213;-84
2023/06/29 10:59:29;;;;;;;5.43;2.67;;;27.40;99.90;;;;;;4999674;28;20289;-84
2023/06/29 11:01:56;;;;;;;2.47;1.67;;;27.60;99.90;;;;;;5016979;28;20167;-84
2023/06/29 11:04:23;;;;;;;3.13;1.90;;;27.50;99.90;;;;;;5017317;28;20645;-84
2023/06/29 11:06:48;;;;;;;5.90;2.35;;;27.30;99.90;;;;;;4999619;28;20195;-86
2023/06/29 11:09:15;;;;;;;2.38;1.90;;;27.70;99.90;;;;;;4999836;28;20256;-84
2023/06/29 11:11:45;;;;;;;2.90;2.20;;;27.90;99.90;;;;;;5016805;28;20199;-85
2023/06/29 11:14:14;;;;;;;2.35;1.90;;;28.00;99.90;;;;;;4999988;28;20177;-84
2023/06/29 11:16:40;;;;;;;2.20;1.80;;;28.00;99.90;;;;;;5001047;28;20175;-84
2023/06/29 11:19:06;;;;;;;8.30;2.20;;;28.20;99.90;;;;;;4997976;28;20241;-84
2023/06/29 11:21:32;;;;;;;152.07;15.93;;;28.30;99.90;;;;;;5014867;28;20265;-84
2023/06/29 11:23:58;;;;;;;1.50;1.40;;;28.60;99.90;;;;;;5015654;28;20213;-84
2023/06/29 11:26:24;;;;;;;1.75;1.58;;;29.00;99.90;;;;;;4997818;28;20202;-84
2023/06/29 11:28:51;;;;;;;1.67;1.40;;;29.10;99.90;;;;;;5016605;28;20230;-84
2023/06/29 11:31:17;;;;;;;144.43;36.75;;;28.50;99.90;;;;;;5014870;28;20230;-84
2023/06/29 11:33:50;;;;;;;2.08;1.88;;;28.00;99.90;;;;;;4998156;28;20266;-84
2023/06/29 11:36:29;;;;;;;2.17;1.98;;;27.50;99.90;;;;;;4997003;28;20172;-88
2023/06/29 11:39:08;;;;;;;2.15;1.67;;;27.30;99.90;;;;;;5015743;28;20198;-84
2023/06/29 11:41:35;;;;;;;2.40;2.00;;;27.30;99.90;;;;;;4997888;28;20253;-84
2023/06/29 11:44:00;;;;;;;1.80;1.70;;;27.20;99.90;;;;;;4997848;28;20175;-84
2023/06/29 11:46:27;;;;;;;2.78;2.00;;;27.20;99.90;;;;;;5015492;28;20213;-85
2023/06/29 11:48:56;;;;;;;2.65;1.90;;;27.60;99.90;;;;;;5015863;28;20194;-84
2023/06/29 11:51:25;;;;;;;2.25;1.90;;;28.20;99.90;;;;;;5015290;28;20186;-85
2023/06/29 11:53:52;;;;;;;3.03;1.98;;;28.70;99.90;;;;;;5015203;28;20171;-85
2023/06/29 11:56:37;;;;;;;2.88;2.22;;;28.90;99.90;;;;;;4997661;28;20211;-83
2023/06/29 11:59:10;;;;;;;2.80;2.25;;;28.50;99.90;;;;;;5014844;28;20195;-84
2023/06/29 12:01:37;;;;;;;3.50;2.20;;;28.30;99.90;;;;;;4997125;28;20297;-84
2023/06/29 12:04:07;;;;;;;2.63;2.22;;;28.20;99.90;;;;;;5015268;28;20193;-86
2023/06/29 12:06:33;;;;;;;2.28;2.05;;;27.90;99.90;;;;;;4997894;28;20206;-84
2023/06/29 12:08:58;;;;;;;3.42;2.30;;;27.70;99.90;;;;;;5018382;23;20291;-84
2023/06/29 12:11:26;;;;;;;2.20;2.00;;;27.50;99.90;;;;;;4992542;28;20259;-84
2023/06/29 12:13:53;;;;;;;2.65;2.00;;;27.40;99.90;;;;;;4994246;28;20175;-84
2023/06/29 12:16:22;;;;;;;2.30;1.95;;;27.20;99.90;;;;;;4994087;28;20175;-84
2023/06/29 12:18:49;;;;;;;3.08;2.03;;;26.90;99.90;;;;;;4994032;28;20203;-84
2023/06/29 12:21:19;;;;;;;2.70;2.13;;;26.80;99.90;;;;;;4994069;28;20254;-84
2023/06/29 12:23:44;;;;;;;53.35;27.25;;;26.70;99.90;;;;;;4993569;28;20180;-84
2023/06/29 12:26:11;;;;;;;103.45;24.90;;;26.80;99.90;;;;;;4992967;28;20250;-84
2023/06/29 12:28:37;;;;;;;2.63;2.10;;;26.80;99.90;;;;;;4993377;28;20192;-83
2023/06/29 12:31:03;;;;;;;2.55;1.80;;;27.00;99.90;;;;;;4992248;28;20172;-84
2023/06/29 12:33:29;;;;;;;3.35;1.90;;;26.80;99.90;;;;;;4993931;28;20178;-83
2023/06/29 12:35:57;;;;;;;2.72;2.03;;;26.80;99.90;;;;;;4994019;28;20259;-84
2023/06/29 12:38:22;;;;;;;4.07;2.22;;;26.90;99.90;;;;;;4991129;28;20214;-84
2023/06/29 12:40:48;;;;;;;78.65;4.60;;;26.80;99.90;;;;;;4993215;28;20179;-84
2023/06/29 12:43:13;;;;;;;2.88;2.50;;;26.70;99.90;;;;;;4992476;28;20214;-84
2023/06/29 12:45:40;;;;;;;2.88;2.08;;;26.60;99.90;;;;;;4993656;28;20705;-84